Time;durP1;ratioP1;P1;durP2;ratioP2;P2;SDS_P1;SDS_P2;PMS_P1;PMS_P2;Temp;Humidity;BMP_temperature;BMP_pressure;BME280_temperature;BME280_humidity;BME280_pressure;Samples;Min_cycle;Max_cycle;Signal;HPM_P1;HPM_P2
2022/01/12 00:05:58;;;;;;;9.52;4.65;;;11.90;57.90;;;;;;20748695;28;19940;-78
2022/01/12 00:16:02;;;;;;;11.35;5.90;;;12.00;57.90;;;;;;20716266;28;20034;-78
2022/01/12 00:36:03;;;;;;;9.27;4.68;;;11.90;58.00;;;;;;20730787;28;20108;-78
2022/01/12 00:46:05;;;;;;;9.43;5.18;;;11.90;58.00;;;;;;20698464;28;20034;-79
2022/01/12 00:56:08;;;;;;;10.27;5.00;;;12.00;58.10;;;;;;20698097;28;20077;-79
2022/01/12 01:06:12;;;;;;;10.25;5.18;;;11.90;58.00;;;;;;20712569;28;20044;-80
2022/01/12 01:16:21;;;;;;;11.93;4.88;;;11.90;58.00;;;;;;20724362;28;20050;-78
2022/01/12 01:26:22;;;;;;;6.40;3.38;;;11.90;58.00;;;;;;20729514;28;20038;-78
2022/01/12 01:36:27;;;;;;;6.43;4.07;;;11.80;58.00;;;;;;20728000;28;20050;-79
2022/01/12 01:56:48;;;;;;;8.10;3.90;;;11.80;58.00;;;;;;20759640;28;20034;-78
2022/01/12 02:06:54;;;;;;;7.75;3.75;;;11.80;58.00;;;;;;20725796;28;20026;-78
2022/01/12 02:17:03;;;;;;;7.55;3.78;;;11.80;58.70;;;;;;20757455;28;20042;-78
2022/01/12 02:58:02;;;;;;;5.78;3.30;;;11.80;58.00;;;;;;20740958;28;20038;-79
2022/01/12 03:08:12;;;;;;;4.55;2.63;;;11.80;58.00;;;;;;20739085;28;20044;-78
2022/01/12 03:18:15;;;;;;;6.15;3.15;;;11.80;58.00;;;;;;20752012;28;20045;-78
2022/01/12 03:28:16;;;;;;;6.25;2.90;;;11.70;58.00;;;;;;20734932;28;20040;-78
2022/01/12 03:38:21;;;;;;;5.82;3.33;;;11.70;58.00;;;;;;20718725;28;20042;-79
2022/01/12 03:48:26;;;;;;;5.18;2.95;;;11.80;58.00;;;;;;20750416;28;20037;-78
2022/01/12 03:58:27;;;;;;;5.07;2.90;;;11.70;58.00;;;;;;20749362;28;20117;-79
2022/01/12 04:08:28;;;;;;;6.13;2.75;;;11.70;58.00;;;;;;20716911;28;20551;-79
2022/01/12 04:18:31;;;;;;;7.82;2.17;;;11.70;58.00;;;;;;20730808;28;20046;-78
2022/01/12 04:28:33;;;;;;;4.25;2.47;;;11.70;58.00;;;;;;20731760;28;20034;-80
2022/01/12 04:38:35;;;;;;;3.72;2.05;;;11.70;58.00;;;;;;20731860;28;20069;-78
2022/01/12 04:58:43;;;;;;;2.70;1.58;;;11.70;58.00;;;;;;20763153;28;20045;-79
2022/01/12 05:18:51;;;;;;;4.70;2.08;;;11.90;57.70;;;;;;20714078;28;20045;-78
2022/01/12 05:28:53;;;;;;;4.30;2.03;;;12.80;55.70;;;;;;20729083;28;20034;-79
2022/01/12 05:38:54;;;;;;;3.42;1.73;;;13.80;53.50;;;;;;20728524;28;20085;-79
2022/01/12 05:59:18;;;;;;;4.95;2.03;;;15.00;50.10;;;;;;20738613;28;20148;-79
2022/01/12 06:09:19;;;;;;;3.15;2.50;;;15.30;49.50;;;;;;20753388;28;20057;-80
2022/01/12 06:19:21;;;;;;;3.42;2.17;;;15.10;49.10;;;;;;20778563;28;20128;-82
2022/01/12 06:29:50;;;;;;;3.33;1.60;;;14.60;49.80;;;;;;20785725;28;20029;-80
2022/01/12 06:39:51;;;;;;;5.97;2.33;;;13.80;51.30;;;;;;20794059;28;20046;-80
2022/01/12 06:49:52;;;;;;;3.13;1.90;;;13.20;52.70;;;;;;20718347;28;20065;-81
2022/01/12 06:59:52;;;;;;;4.53;2.10;;;12.60;53.80;;;;;;20733954;28;20293;-80
2022/01/12 07:09:55;;;;;;;5.97;2.20;;;12.30;54.90;;;;;;20667162;28;20039;-81
2022/01/12 07:19:58;;;;;;;4.53;2.45;;;12.00;55.70;;;;;;20690351;28;20040;-81
2022/01/12 07:30:00;;;;;;;3.95;2.33;;;11.80;56.30;;;;;;20747993;28;20053;-81
2022/01/12 07:40:01;;;;;;;6.35;2.67;;;11.70;56.80;;;;;;20733750;28;20041;-79
2022/01/12 07:50:03;;;;;;;5.03;2.03;;;11.70;57.10;;;;;;20811754;28;20396;-80
2022/01/12 08:00:05;;;;;;;4.60;2.30;;;11.60;57.20;;;;;;20742503;28;20289;-80
2022/01/12 08:10:12;;;;;;;5.05;2.20;;;11.60;57.40;;;;;;20761993;28;20053;-80
2022/01/12 08:20:16;;;;;;;7.93;3.08;;;11.70;57.60;;;;;;20806401;28;20080;-80
2022/01/12 08:30:17;;;;;;;5.70;3.30;;;11.60;57.50;;;;;;20815022;28;20434;-81
2022/01/12 08:40:19;;;;;;;11.05;4.43;;;11.60;57.60;;;;;;20772543;28;20504;-80
2022/01/12 08:50:20;;;;;;;7.00;4.07;;;11.60;57.70;;;;;;20759369;28;20033;-80
2022/01/12 09:00:21;;;;;;;7.93;4.32;;;11.50;57.90;;;;;;20741702;28;20370;-80
2022/01/12 09:10:23;;;;;;;9.73;4.28;;;11.40;57.90;;;;;;20724876;28;20488;-80
2022/01/12 09:20:26;;;;;;;11.13;4.35;;;11.50;58.10;;;;;;20741256;28;20040;-80
2022/01/12 09:30:28;;;;;;;7.47;4.07;;;11.50;58.20;;;;;;20726493;28;20038;-80
2022/01/12 09:40:29;;;;;;;8.73;4.45;;;11.40;58.30;;;;;;20747530;28;20115;-80
2022/01/12 09:50:30;;;;;;;6.38;3.92;;;11.40;58.50;;;;;;20723078;28;20112;-80
2022/01/12 10:00:33;;;;;;;9.88;5.05;;;11.50;58.50;;;;;;20738072;28;20060;-80
2022/01/12 10:10:33;;;;;;;8.25;4.40;;;11.40;58.60;;;;;;20737454;28;20151;-79
2022/01/12 10:20:43;;;;;;;8.05;4.50;;;11.40;58.70;;;;;;20751570;28;20034;-78
2022/01/12 10:30:58;;;;;;;10.15;4.47;;;11.40;58.80;;;;;;20735665;28;20044;-79
2022/01/12 10:41:04;;;;;;;9.93;5.22;;;11.40;59.50;;;;;;20743597;28;20046;-80
2022/01/12 10:51:04;;;;;;;15.95;5.78;;;11.30;58.90;;;;;;20717503;28;20034;-76
2022/01/12 11:01:05;;;;;;;11.90;5.80;;;11.30;59.00;;;;;;20746801;28;20037;-79
2022/01/12 11:11:06;;;;;;;11.25;5.65;;;11.30;59.10;;;;;;20731171;28;20061;-80
2022/01/12 11:21:27;;;;;;;13.18;6.70;;;11.90;58.30;;;;;;20758663;28;20125;-79
2022/01/12 11:31:30;;;;;;;10.00;4.80;;;12.90;55.90;;;;;;20734117;28;20037;-79
2022/01/12 11:41:35;;;;;;;12.35;5.47;;;13.80;53.90;;;;;;21140827;22;20676;-80
2022/01/12 11:51:39;;;;;;;13.82;6.60;;;14.60;52.10;;;;;;20569857;28;20046;-79
2022/01/12 12:01:50;;;;;;;12.82;6.35;;;15.00;50.60;;;;;;20703623;28;20046;-79
2022/01/12 12:11:51;;;;;;;10.68;5.18;;;15.30;49.80;;;;;;20634358;28;20025;-79
2022/01/12 12:21:52;;;;;;;10.60;5.88;;;15.30;49.50;;;;;;20682818;28;20520;-78
2022/01/12 12:31:53;;;;;;;12.65;5.13;;;15.20;49.40;;;;;;20632726;28;20046;-80
2022/01/12 12:41:54;;;;;;;14.77;6.90;;;14.60;50.20;;;;;;20645801;28;20141;-78
2022/01/12 12:52:02;;;;;;;10.77;6.07;;;13.80;51.60;;;;;;20662185;28;20130;-79
2022/01/12 13:02:11;;;;;;;9.95;5.30;;;13.20;53.10;;;;;;20615987;28;20046;-78
2022/01/12 13:12:12;;;;;;;13.68;5.57;;;12.70;54.30;;;;;;20725547;28;20133;-77
2022/01/12 13:22:36;;;;;;;10.65;5.53;;;12.40;55.40;;;;;;20734848;28;20125;-77
2022/01/12 13:32:38;;;;;;;10.52;4.90;;;12.10;56.20;;;;;;20758348;28;20026;-78
2022/01/12 13:42:59;;;;;;;12.10;4.88;;;11.90;56.80;;;;;;20725712;28;20499;-79
2022/01/12 13:53:00;;;;;;;8.60;3.95;;;11.90;57.30;;;;;;20651254;28;20046;-78
2022/01/12 14:03:01;;;;;;;9.95;4.30;;;11.90;57.60;;;;;;20619579;28;20061;-77
2022/01/12 14:13:03;;;;;;;9.48;4.75;;;11.80;57.60;;;;;;20601528;28;20026;-79
2022/01/12 14:23:10;;;;;;;10.68;5.07;;;11.80;57.70;;;;;;20601117;28;20049;-80
2022/01/12 14:33:11;;;;;;;7.32;4.07;;;11.80;57.80;;;;;;20583625;28;20055;-82
2022/01/12 14:43:14;;;;;;;7.95;4.72;;;11.80;57.80;;;;;;20604280;28;20559;-73
2022/01/12 14:53:17;;;;;;;9.10;4.65;;;11.90;58.00;;;;;;20630375;28;20097;-74
2022/01/12 15:03:19;;;;;;;8.60;3.95;;;11.80;58.10;;;;;;20642068;28;20034;-76
2022/01/12 15:13:26;;;;;;;9.17;3.70;;;11.70;58.20;;;;;;20605062;28;20428;-77
2022/01/12 15:23:27;;;;;;;8.10;4.45;;;11.70;58.30;;;;;;20637477;28;20324;-76
2022/01/12 15:33:29;;;;;;;7.60;3.80;;;11.70;58.50;;;;;;20603497;28;20045;-79
2022/01/12 15:43:29;;;;;;;8.88;3.42;;;11.60;58.60;;;;;;20636257;28;20034;-75
2022/01/12 15:53:31;;;;;;;7.10;3.80;;;12.30;57.70;;;;;;20649093;28;20061;-76
2022/01/12 16:03:33;;;;;;;6.45;3.50;;;13.20;55.50;;;;;;20618609;28;20042;-76
2022/01/12 16:13:38;;;;;;;7.25;2.97;;;14.10;53.40;;;;;;20632492;28;20469;-73
2022/01/12 16:23:39;;;;;;;10.80;3.92;;;14.80;51.60;;;;;;20613945;28;20034;-78
2022/01/12 16:33:39;;;;;;;5.78;3.13;;;15.10;51.20;;;;;;20638567;28;20487;-75
2022/01/12 16:43:41;;;;;;;6.47;3.08;;;15.20;50.00;;;;;;20597862;28;20034;-75
2022/01/12 16:53:43;;;;;;;8.98;3.40;;;15.10;49.90;;;;;;20632761;28;20048;-76
2022/01/12 17:03:46;;;;;;;4.75;2.80;;;14.50;50.80;;;;;;20602059;28;20396;-77
2022/01/12 17:13:47;;;;;;;5.35;2.85;;;13.80;52.40;;;;;;20651936;28;20058;-77
2022/01/12 17:24:01;;;;;;;8.15;3.38;;;13.20;53.60;;;;;;20629255;28;20027;-74
2022/01/12 17:34:07;;;;;;;8.73;3.40;;;12.70;54.90;;;;;;20627861;28;20034;-75
2022/01/12 17:44:08;;;;;;;9.67;3.60;;;12.30;55.80;;;;;;20629357;28;20038;-82
2022/01/12 17:54:09;;;;;;;6.38;3.65;;;12.10;56.60;;;;;;20652442;28;20057;-77
2022/01/12 18:04:11;;;;;;;9.55;3.55;;;12.00;57.20;;;;;;20639381;28;20165;-79
2022/01/12 18:14:11;;;;;;;7.10;3.58;;;11.90;57.60;;;;;;20642505;28;20034;-80
2022/01/12 18:24:12;;;;;;;7.93;3.80;;;11.90;57.80;;;;;;20600418;28;20401;-80
2022/01/12 18:34:13;;;;;;;8.32;3.13;;;11.90;57.90;;;;;;20603740;28;20034;-76
2022/01/12 18:44:15;;;;;;;8.10;3.47;;;11.90;57.90;;;;;;20556603;28;20118;-74
2022/01/12 18:54:16;;;;;;;7.93;4.40;;;12.00;57.90;;;;;;20610779;28;20076;-76
2022/01/12 19:04:17;;;;;;;11.15;4.45;;;11.90;57.90;;;;;;20703383;28;20472;-75
2022/01/12 19:14:19;;;;;;;7.22;3.95;;;11.90;57.90;;;;;;20719087;28;20042;-74
2022/01/12 19:24:20;;;;;;;12.15;4.43;;;12.00;58.00;;;;;;20734357;28;20029;-75
2022/01/12 19:34:21;;;;;;;9.95;4.22;;;11.90;58.00;;;;;;20619266;28;20057;-75
2022/01/12 19:44:23;;;;;;;10.55;5.43;;;12.00;58.10;;;;;;20605475;28;20035;-74
2022/01/12 19:54:40;;;;;;;8.32;4.32;;;11.90;58.00;;;;;;20581723;28;20038;-74
2022/01/12 20:04:40;;;;;;;;;;;11.90;58.00;;;;;;20621888;28;20448;-74
2022/01/12 20:14:42;;;;;;;9.15;4.65;;;11.90;58.00;;;;;;20594993;28;19918;-74
2022/01/12 20:24:47;;;;;;;8.45;4.35;;;11.90;57.90;;;;;;20611847;28;20052;-74
2022/01/12 20:34:50;;;;;;;10.63;4.20;;;11.90;57.90;;;;;;20601286;28;20066;-74
2022/01/12 20:44:51;;;;;;;12.05;4.50;;;11.90;58.00;;;;;;20644593;28;20062;-75
2022/01/12 20:54:52;;;;;;;10.13;4.65;;;11.90;58.00;;;;;;20648223;28;20437;-75
2022/01/12 21:04:53;;;;;;;10.25;4.30;;;11.90;58.10;;;;;;20647257;28;20042;-73
2022/01/12 21:14:54;;;;;;;7.82;4.93;;;11.90;58.30;;;;;;20630694;28;20042;-74
2022/01/12 21:24:55;;;;;;;10.60;4.70;;;11.90;58.10;;;;;;20616201;28;20465;-74
2022/01/12 21:34:57;;;;;;;9.00;4.78;;;11.90;58.20;;;;;;20646520;28;20293;-74
2022/01/12 21:44:59;;;;;;;11.52;5.93;;;11.80;58.10;;;;;;20662246;28;20039;-74
2022/01/12 21:54:59;;;;;;;11.52;5.93;;;11.80;58.00;;;;;;20628536;28;20041;-73
2022/01/12 22:05:03;;;;;;;12.25;5.40;;;11.80;58.00;;;;;;20643727;28;20022;-74
2022/01/12 22:15:04;;;;;;;13.23;6.18;;;11.80;58.00;;;;;;20659909;28;20043;-74
2022/01/12 22:25:05;;;;;;;13.13;5.13;;;11.80;58.00;;;;;;20657915;28;20165;-76
2022/01/12 22:35:07;;;;;;;9.95;5.38;;;11.80;58.00;;;;;;20640889;28;20053;-74
2022/01/12 22:45:08;;;;;;;11.50;6.03;;;11.80;58.00;;;;;;20655355;28;20721;-75
2022/01/12 22:55:09;;;;;;;14.93;6.22;;;11.80;57.90;;;;;;20639567;28;20552;-73
2022/01/12 23:05:12;;;;;;;13.43;7.32;;;11.80;57.90;;;;;;20655698;28;20030;-74
2022/01/12 23:15:13;;;;;;;10.93;5.75;;;11.80;57.80;;;;;;20638601;28;20129;-73
2022/01/12 23:25:17;;;;;;;11.27;6.57;;;11.80;57.80;;;;;;20637886;28;20065;-74
2022/01/12 23:56:30;;;;;;;7.63;4.63;;;11.80;57.80;;;;;;20637155;28;20456;-74
